Terminal Aerodrome Forecast
Issued by NWS

Home | Current Version | Previous Version | Text Only | Print | Product List | Glossary On
Versions: 1 2 3 4 5 6 7 8 9 10 11 12 13
000
FTUS46 KEKA 301135
TAFUKI
TAF
KUKI 301135Z 3012/3112 00000KT P6SM FEW250
     FM301700 VRB02KT P6SM SCT009
     FM302000 32003KT P6SM SKC
     FM310300 00000KT P6SM SKC=

USA.gov is the U.S. government's official web portal to all federal, state and local government web resources and services.